Time;durP1;ratioP1;P1;durP2;ratioP2;P2;SDS_P1;SDS_P2;PMS_P1;PMS_P2;Temp;Humidity;BMP_temperature;BMP_pressure;BME280_temperature;BME280_humidity;BME280_pressure;Samples;Min_cycle;Max_cycle;Signal;HPM_P1;HPM_P2
2021/06/20 00:00:27;;;;;;;32.65;25.10;;;16.60;99.90;;;;;;5090331;28;20040;-70
2021/06/20 00:02:53;;;;;;;30.95;24.67;;;16.60;99.90;;;;;;5069513;28;20111;-70
2021/06/20 00:05:23;;;;;;;31.40;24.88;;;16.70;99.90;;;;;;5089842;28;20122;-70
2021/06/20 00:07:49;;;;;;;32.80;25.30;;;16.70;99.90;;;;;;5088977;28;20127;-70
2021/06/20 00:10:19;;;;;;;35.17;25.25;;;16.70;99.90;;;;;;5085263;28;20044;-70
2021/06/20 00:12:45;;;;;;;32.42;25.27;;;16.70;99.90;;;;;;5085657;28;20051;-70
2021/06/20 00:15:15;;;;;;;36.95;25.58;;;16.70;99.90;;;;;;5089223;28;20032;-70
2021/06/20 00:17:41;;;;;;;38.95;27.92;;;16.70;99.90;;;;;;5090453;28;20122;-70
2021/06/20 00:20:08;;;;;;;35.33;25.50;;;16.70;99.90;;;;;;5086729;28;20032;-70
2021/06/20 00:22:35;;;;;;;40.35;27.02;;;16.80;99.90;;;;;;5075587;28;20047;-71
2021/06/20 00:25:00;;;;;;;39.03;27.00;;;16.90;99.90;;;;;;5093065;28;20066;-71
2021/06/20 00:27:27;;;;;;;29.85;22.88;;;16.90;99.90;;;;;;5094330;28;20044;-71
2021/06/20 00:29:52;;;;;;;35.72;25.65;;;16.90;99.90;;;;;;5069117;28;20537;-71
2021/06/20 00:32:18;;;;;;;32.88;23.60;;;16.90;99.90;;;;;;5094097;28;20064;-71
2021/06/20 00:34:44;;;;;;;31.15;22.77;;;16.70;99.90;;;;;;5093644;28;20074;-70
2021/06/20 00:37:09;;;;;;;32.60;22.20;;;16.70;99.90;;;;;;5075719;28;20469;-70
2021/06/20 00:39:35;;;;;;;31.95;22.08;;;16.70;99.90;;;;;;5098509;28;20040;-70
2021/06/20 00:42:01;;;;;;;31.73;23.23;;;16.70;99.90;;;;;;5113941;28;20035;-71
2021/06/20 00:44:27;;;;;;;30.02;22.45;;;16.70;99.90;;;;;;5099481;28;20126;-70
2021/06/20 00:46:52;;;;;;;28.90;22.55;;;16.70;99.90;;;;;;5069582;28;20036;-70
2021/06/20 00:49:18;;;;;;;32.25;22.92;;;16.70;99.90;;;;;;5093062;28;20039;-70
2021/06/20 00:51:44;;;;;;;30.83;22.00;;;16.70;99.90;;;;;;5093869;28;20518;-70
2021/06/20 00:54:11;;;;;;;36.13;23.63;;;16.70;99.90;;;;;;5093334;28;20127;-70
2021/06/20 00:56:37;;;;;;;34.90;23.00;;;16.70;99.90;;;;;;5093392;28;20036;-70
2021/06/20 00:59:03;;;;;;;31.27;23.20;;;16.70;99.90;;;;;;5093308;28;20028;-68
2021/06/20 01:01:30;;;;;;;31.98;23.40;;;16.70;99.90;;;;;;5093384;28;20032;-69
2021/06/20 01:03:57;;;;;;;35.47;24.15;;;16.70;99.90;;;;;;5093550;28;20044;-71
2021/06/20 01:06:23;;;;;;;32.70;23.27;;;16.70;99.90;;;;;;5093288;28;20036;-69
2021/06/20 01:08:49;;;;;;;35.53;23.52;;;16.70;99.90;;;;;;5083864;28;20103;-70
2021/06/20 01:11:16;;;;;;;39.30;24.55;;;16.60;99.90;;;;;;5084548;28;20048;-69
2021/06/20 01:13:45;;;;;;;36.05;26.42;;;16.50;99.90;;;;;;5093058;28;20044;-69
2021/06/20 01:16:11;;;;;;;37.08;23.83;;;16.40;99.90;;;;;;5093357;28;20094;-69
2021/06/20 01:18:37;;;;;;;41.92;25.42;;;16.40;99.90;;;;;;5092867;28;20044;-70
2021/06/20 01:21:05;;;;;;;39.20;25.45;;;16.30;99.90;;;;;;5068635;28;20040;-70
2021/06/20 01:23:30;;;;;;;39.30;25.85;;;16.10;99.90;;;;;;5093093;28;20051;-69
2021/06/20 01:25:58;;;;;;;38.60;25.40;;;16.10;99.90;;;;;;5092889;28;20427;-69
2021/06/20 01:28:27;;;;;;;41.42;25.08;;;16.10;99.90;;;;;;5093042;28;20134;-69
2021/06/20 01:30:59;;;;;;;40.80;24.35;;;16.10;99.90;;;;;;5093051;28;20089;-70
2021/06/20 01:33:25;;;;;;;;;;;16.10;99.90;;;;;;5091933;28;20060;-70
2021/06/20 01:35:51;;;;;;;36.08;22.55;;;16.20;99.90;;;;;;5092156;28;19924;-70
2021/06/20 01:38:17;;;;;;;43.35;24.13;;;16.10;99.90;;;;;;5092372;28;20051;-70
2021/06/20 01:40:43;;;;;;;41.17;24.60;;;16.10;99.90;;;;;;5092190;28;20077;-70
2021/06/20 01:43:09;;;;;;;33.97;23.25;;;16.20;99.90;;;;;;5092635;28;20042;-69
2021/06/20 01:45:37;;;;;;;30.92;21.25;;;16.10;99.90;;;;;;5091982;28;20044;-69
2021/06/20 01:48:03;;;;;;;36.42;24.58;;;16.10;99.90;;;;;;5089299;28;20485;-69
2021/06/20 01:50:32;;;;;;;34.78;22.10;;;16.20;99.90;;;;;;5092749;28;20048;-70
2021/06/20 01:53:09;;;;;;;30.15;20.35;;;16.20;99.90;;;;;;5092918;28;20114;-69
2021/06/20 01:55:38;;;;;;;32.58;21.50;;;16.30;99.90;;;;;;5072663;28;20052;-69
2021/06/20 01:58:08;;;;;;;35.33;22.33;;;16.30;99.90;;;;;;5077498;28;20032;-70
2021/06/20 02:00:36;;;;;;;30.48;21.55;;;16.30;99.90;;;;;;5088292;28;20420;-70
2021/06/20 02:03:10;;;;;;;30.55;19.23;;;16.30;99.90;;;;;;5092422;28;20040;-70
2021/06/20 02:05:37;;;;;;;25.98;18.83;;;16.40;99.90;;;;;;5092697;28;20115;-70
2021/06/20 02:08:03;;;;;;;30.88;21.05;;;16.50;99.90;;;;;;5092514;28;20091;-70
2021/06/20 02:10:29;;;;;;;30.27;21.13;;;16.60;99.90;;;;;;5092812;28;20032;-70
2021/06/20 02:12:56;;;;;;;33.85;21.70;;;16.50;99.90;;;;;;5074199;28;20040;-70
2021/06/20 02:15:22;;;;;;;31.73;20.23;;;16.50;99.90;;;;;;5092559;28;20101;-70
2021/06/20 02:17:49;;;;;;;31.55;21.23;;;16.60;99.90;;;;;;5091039;28;20152;-69
2021/06/20 02:20:17;;;;;;;30.60;21.10;;;16.60;99.90;;;;;;5092533;28;20059;-70
2021/06/20 02:22:45;;;;;;;36.05;21.20;;;16.60;99.90;;;;;;5092539;28;20044;-70
2021/06/20 02:25:13;;;;;;;32.88;22.75;;;16.60;99.90;;;;;;5091963;28;20493;-70
2021/06/20 02:27:40;;;;;;;40.58;25.90;;;16.70;99.90;;;;;;5092350;28;20040;-70
2021/06/20 02:30:07;;;;;;;32.60;23.48;;;16.60;99.90;;;;;;5092081;28;20040;-70
2021/06/20 02:32:33;;;;;;;36.67;24.33;;;16.60;99.90;;;;;;5073174;28;20032;-70
2021/06/20 02:34:59;;;;;;;36.03;24.42;;;16.60;99.90;;;;;;5073816;28;20048;-70
2021/06/20 02:37:25;;;;;;;32.10;23.90;;;16.60;99.90;;;;;;5091776;28;20070;-70
2021/06/20 02:39:51;;;;;;;31.48;22.80;;;16.70;99.90;;;;;;5087795;28;20036;-70
2021/06/20 02:42:18;;;;;;;42.40;26.98;;;16.70;99.90;;;;;;5092082;28;20111;-70
2021/06/20 02:44:44;;;;;;;34.88;25.10;;;16.70;99.90;;;;;;5092126;28;20066;-70
2021/06/20 02:47:11;;;;;;;37.05;27.33;;;16.70;99.90;;;;;;5091722;28;20044;-71
2021/06/20 02:49:38;;;;;;;32.42;25.05;;;16.60;99.90;;;;;;5089727;28;20032;-70
2021/06/20 02:52:09;;;;;;;32.83;25.50;;;16.70;99.90;;;;;;5091504;28;20044;-70
2021/06/20 02:54:35;;;;;;;40.75;29.40;;;16.70;99.90;;;;;;5091724;28;20039;-70
2021/06/20 02:57:02;;;;;;;43.28;27.13;;;16.70;99.90;;;;;;5091586;28;20044;-70
2021/06/20 02:59:27;;;;;;;36.65;27.02;;;16.70;99.90;;;;;;5091822;28;20446;-70
2021/06/20 03:01:53;;;;;;;39.50;28.48;;;16.70;99.90;;;;;;5091444;28;20078;-70
2021/06/20 03:04:19;;;;;;;41.25;29.75;;;16.80;99.90;;;;;;5091647;28;20036;-70
2021/06/20 03:06:45;;;;;;;43.05;29.23;;;16.70;99.90;;;;;;5090182;28;20036;-70
2021/06/20 03:09:11;;;;;;;45.83;31.38;;;16.70;99.90;;;;;;5091517;28;20039;-70
2021/06/20 03:11:41;;;;;;;42.55;31.10;;;16.70;99.90;;;;;;5076322;28;20036;-71
2021/06/20 03:14:15;;;;;;;47.25;31.45;;;16.60;99.90;;;;;;5084619;28;20040;-70
2021/06/20 03:16:42;;;;;;;41.47;30.25;;;16.60;99.90;;;;;;5091143;28;20063;-70
2021/06/20 03:19:08;;;;;;;46.83;32.40;;;16.60;99.90;;;;;;5091314;28;20040;-71
2021/06/20 03:21:34;;;;;;;43.95;31.40;;;16.60;99.90;;;;;;5070673;28;20037;-70
2021/06/20 03:24:00;;;;;;;44.10;30.70;;;16.60;99.90;;;;;;5091031;28;20047;-70
2021/06/20 03:26:25;;;;;;;43.40;30.40;;;16.60;99.90;;;;;;5090709;28;20788;-70
2021/06/20 03:28:51;;;;;;;41.40;30.35;;;16.60;99.90;;;;;;5091087;28;20057;-70
2021/06/20 03:31:18;;;;;;;40.00;29.50;;;16.60;99.90;;;;;;5090542;28;20036;-70
2021/06/20 03:33:45;;;;;;;40.05;29.77;;;16.70;99.90;;;;;;5090747;28;20138;-70
2021/06/20 03:36:11;;;;;;;40.78;30.30;;;16.70;99.90;;;;;;5090314;28;20047;-70
2021/06/20 03:38:36;;;;;;;40.42;29.58;;;16.70;99.90;;;;;;5088975;28;20036;-70
2021/06/20 03:41:02;;;;;;;38.83;29.33;;;16.80;99.90;;;;;;5107474;28;20078;-70
2021/06/20 03:43:28;;;;;;;43.20;31.73;;;16.80;99.90;;;;;;5107327;28;20393;-70
2021/06/20 03:45:54;;;;;;;33.75;27.40;;;16.80;99.90;;;;;;5072782;28;20093;-70
2021/06/20 03:48:19;;;;;;;37.58;28.60;;;16.80;99.90;;;;;;5090478;28;20032;-70
2021/06/20 03:50:45;;;;;;;39.45;28.05;;;16.90;99.90;;;;;;5085332;28;20039;-70
2021/06/20 03:53:11;;;;;;;38.45;30.05;;;16.90;99.90;;;;;;5070978;28;20036;-70
2021/06/20 03:55:38;;;;;;;36.70;29.75;;;16.90;99.90;;;;;;5089553;28;20070;-70
2021/06/20 03:58:06;;;;;;;43.53;31.10;;;16.90;99.90;;;;;;5090568;28;20047;-70
2021/06/20 04:00:34;;;;;;;39.70;31.23;;;16.90;99.90;;;;;;5071661;28;20044;-70
2021/06/20 04:03:00;;;;;;;32.50;26.40;;;16.90;99.90;;;;;;5089956;28;20101;-70
2021/06/20 04:05:26;;;;;;;41.75;31.58;;;17.00;99.90;;;;;;5090202;28;20070;-70
2021/06/20 04:07:52;;;;;;;39.97;31.95;;;16.90;99.90;;;;;;5088948;28;20067;-70
2021/06/20 04:10:17;;;;;;;38.47;30.38;;;17.00;99.90;;;;;;5081723;28;20028;-70
2021/06/20 04:12:43;;;;;;;40.67;31.50;;;17.00;99.90;;;;;;5090721;28;20445;-70
2021/06/20 04:15:09;;;;;;;40.40;31.45;;;17.00;99.90;;;;;;5090343;28;20051;-70
2021/06/20 04:17:35;;;;;;;38.83;31.10;;;17.00;99.90;;;;;;5072486;28;20107;-70
2021/06/20 04:20:03;;;;;;;39.80;31.95;;;17.00;99.90;;;;;;5086754;28;20039;-70
2021/06/20 04:22:29;;;;;;;47.25;33.60;;;17.10;99.90;;;;;;5081649;28;20044;-70
2021/06/20 04:24:55;;;;;;;39.67;32.15;;;17.20;99.90;;;;;;5090176;28;20123;-70
2021/06/20 04:27:20;;;;;;;42.15;31.23;;;17.20;99.90;;;;;;5089588;28;20062;-70
2021/06/20 04:29:46;;;;;;;43.97;33.20;;;17.30;99.90;;;;;;5090212;28;20497;-70
2021/06/20 04:32:12;;;;;;;43.13;32.65;;;17.30;99.90;;;;;;5090584;28;20055;-70
2021/06/20 04:34:37;;;;;;;43.38;31.60;;;17.40;99.90;;;;;;5090041;28;20117;-70
2021/06/20 04:37:03;;;;;;;40.85;31.92;;;17.40;99.90;;;;;;5090631;28;20047;-70
2021/06/20 04:39:29;;;;;;;43.33;33.33;;;17.30;99.90;;;;;;5068849;28;20040;-70
2021/06/20 04:41:54;;;;;;;42.58;32.58;;;17.30;99.90;;;;;;5070373;28;20040;-70
2021/06/20 04:45:02;;;;;;;49.42;36.40;;;17.20;99.90;;;;;;5086367;28;20040;-70
2021/06/20 04:47:15;;;;;;;46.83;33.13;;;17.20;99.90;;;;;;5084700;28;20129;-70
2021/06/20 04:49:42;;;;;;;46.45;35.53;;;17.20;99.90;;;;;;5090023;28;20036;-70
2021/06/20 04:52:09;;;;;;;44.22;34.55;;;17.30;99.90;;;;;;5070914;28;20366;-70
2021/06/20 04:54:36;;;;;;;39.20;33.45;;;17.30;99.90;;;;;;5088656;28;20047;-70
2021/06/20 04:57:03;;;;;;;48.40;37.97;;;17.30;99.90;;;;;;5090388;28;20072;-70
2021/06/20 04:59:30;;;;;;;45.80;36.90;;;17.30;99.90;;;;;;5089931;28;20092;-70
2021/06/20 05:01:56;;;;;;;51.72;38.67;;;17.40;99.90;;;;;;5069814;28;20036;-70
2021/06/20 05:04:21;;;;;;;52.15;39.15;;;17.40;99.90;;;;;;5082802;28;20594;-70
2021/06/20 05:06:47;;;;;;;51.78;39.70;;;17.40;99.90;;;;;;5090163;28;20092;-70
2021/06/20 05:09:12;;;;;;;47.65;38.83;;;17.40;99.90;;;;;;5090713;28;20051;-70
2021/06/20 05:11:38;;;;;;;51.65;39.20;;;17.50;99.90;;;;;;5093860;28;20473;-70
2021/06/20 05:14:04;;;;;;;52.17;40.42;;;17.50;99.90;;;;;;5093174;28;20083;-70
2021/06/20 05:16:30;;;;;;;45.05;37.65;;;17.60;99.90;;;;;;5093677;28;20706;-70
2021/06/20 05:18:56;;;;;;;42.65;36.15;;;17.60;99.90;;;;;;5075179;28;20044;-70
2021/06/20 05:21:22;;;;;;;46.50;39.38;;;17.70;99.90;;;;;;5093104;28;20462;-70
2021/06/20 05:23:47;;;;;;;44.60;38.30;;;17.80;99.90;;;;;;5091570;28;20039;-70
2021/06/20 05:26:13;;;;;;;41.42;36.75;;;17.90;99.90;;;;;;5092436;28;20054;-70
2021/06/20 05:28:39;;;;;;;46.03;39.30;;;18.00;99.90;;;;;;5093114;28;20074;-70
2021/06/20 05:31:05;;;;;;;50.92;41.25;;;18.10;99.90;;;;;;5073535;28;20072;-70
2021/06/20 05:33:31;;;;;;;51.90;40.55;;;18.20;99.90;;;;;;5076823;28;20365;-70
2021/06/20 05:35:57;;;;;;;48.13;39.13;;;18.20;99.90;;;;;;5092402;28;20044;-70
2021/06/20 05:38:22;;;;;;;41.13;36.67;;;18.20;99.90;;;;;;5093093;28;20141;-70
2021/06/20 05:40:48;;;;;;;43.88;37.70;;;18.30;99.90;;;;;;5107078;28;20754;-70
2021/06/20 05:43:13;;;;;;;45.53;39.28;;;18.40;99.90;;;;;;5092297;28;20039;-70
2021/06/20 05:45:39;;;;;;;38.92;34.83;;;18.50;99.90;;;;;;5092548;28;20067;-70
2021/06/20 05:48:05;;;;;;;40.63;36.33;;;18.50;99.90;;;;;;5093207;28;20032;-70
2021/06/20 05:50:31;;;;;;;40.83;36.53;;;18.60;99.90;;;;;;5092595;28;20067;-70
2021/06/20 05:52:56;;;;;;;37.17;33.53;;;18.80;99.90;;;;;;5091641;28;20038;-70
2021/06/20 05:55:22;;;;;;;31.52;28.38;;;19.50;99.90;;;;;;5072829;28;20454;-70
2021/06/20 05:57:48;;;;;;;31.25;27.98;;;20.80;99.90;;;;;;5074920;28;20060;-69
2021/06/20 06:00:14;;;;;;;30.17;27.08;;;22.10;99.90;;;;;;5091986;28;20042;-70
2021/06/20 06:02:41;;;;;;;24.65;22.27;;;23.10;99.90;;;;;;5086606;28;20431;-70
2021/06/20 06:05:08;;;;;;;22.75;20.75;;;24.10;99.70;;;;;;5090978;28;20040;-70
2021/06/20 06:07:35;;;;;;;21.08;19.08;;;25.00;98.50;;;;;;5072487;28;20066;-70
2021/06/20 06:10:01;;;;;;;20.65;18.63;;;25.60;96.00;;;;;;5086083;28;20096;-70
2021/06/20 06:12:26;;;;;;;20.65;18.75;;;25.70;95.70;;;;;;5092618;28;20481;-71
2021/06/20 06:14:53;;;;;;;20.70;18.85;;;24.70;96.40;;;;;;5090643;28;20036;-71
2021/06/20 06:17:21;;;;;;;20.23;18.42;;;24.00;96.40;;;;;;5091898;28;20543;-71
2021/06/20 06:19:51;;;;;;;20.38;18.58;;;23.20;97.90;;;;;;5083881;28;20029;-71
2021/06/20 06:22:21;;;;;;;21.13;19.13;;;22.70;99.00;;;;;;5091099;28;20028;-71
2021/06/20 06:24:48;;;;;;;23.40;21.30;;;22.30;98.80;;;;;;5073652;28;20159;-70
2021/06/20 06:27:16;;;;;;;21.30;19.35;;;22.00;99.80;;;;;;5092097;28;20072;-70
2021/06/20 06:29:42;;;;;;;21.95;19.95;;;21.70;99.90;;;;;;5091158;28;20043;-70
2021/06/20 06:32:09;;;;;;;20.23;18.42;;;21.80;99.90;;;;;;5072323;28;20422;-70
2021/06/20 06:34:36;;;;;;;20.38;18.58;;;21.90;99.50;;;;;;5073173;28;20043;-70
2021/06/20 06:37:02;;;;;;;17.95;16.25;;;22.00;99.20;;;;;;5091919;28;20036;-71
2021/06/20 06:39:28;;;;;;;17.80;16.25;;;22.60;98.40;;;;;;5079810;22;20766;-70
2021/06/20 06:41:54;;;;;;;14.88;13.35;;;23.10;97.40;;;;;;5091308;28;20044;-70
2021/06/20 06:44:21;;;;;;;15.63;14.20;;;23.30;96.10;;;;;;5090150;28;20036;-70
2021/06/20 06:46:46;;;;;;;15.40;13.90;;;23.60;96.60;;;;;;5091899;28;20488;-75
2021/06/20 06:49:12;;;;;;;15.73;14.32;;;23.90;96.40;;;;;;5090823;28;20058;-68
2021/06/20 06:51:38;;;;;;;13.07;11.98;;;24.30;95.50;;;;;;5073338;28;20385;-69
2021/06/20 06:54:03;;;;;;;14.18;12.77;;;24.40;94.60;;;;;;5086930;28;20040;-70
2021/06/20 06:56:29;;;;;;;15.80;13.00;;;24.20;94.60;;;;;;5085924;28;20103;-68
2021/06/20 06:58:55;;;;;;;15.18;13.77;;;24.00;94.00;;;;;;5073650;28;20040;-68
2021/06/20 07:01:20;;;;;;;14.45;13.02;;;23.40;95.70;;;;;;5073429;28;20089;-68
2021/06/20 07:03:46;;;;;;;11.18;10.20;;;22.90;96.50;;;;;;5091782;28;20060;-68
2021/06/20 07:06:11;;;;;;;10.43;9.35;;;22.80;95.40;;;;;;5079760;28;20089;-68
2021/06/20 07:08:38;;;;;;;9.50;8.48;;;22.60;96.90;;;;;;5074541;28;20117;-68
2021/06/20 07:11:04;;;;;;;8.85;8.05;;;22.60;96.50;;;;;;5071068;28;20093;-68
2021/06/20 07:13:30;;;;;;;9.02;8.18;;;22.40;97.00;;;;;;5071407;28;20036;-68
2021/06/20 07:15:56;;;;;;;8.98;8.15;;;22.20;97.40;;;;;;5069945;28;20037;-67
2021/06/20 07:18:22;;;;;;;9.43;8.52;;;22.20;97.50;;;;;;5076259;28;20547;-68
2021/06/20 07:20:49;;;;;;;8.93;8.07;;;22.10;97.90;;;;;;5081748;28;20032;-68
2021/06/20 07:23:14;;;;;;;9.63;8.73;;;21.90;97.80;;;;;;5088909;28;20186;-68
2021/06/20 07:25:40;;;;;;;9.27;8.48;;;22.10;97.70;;;;;;5084725;28;20119;-68
2021/06/20 07:28:06;;;;;;;8.68;7.85;;;22.20;97.50;;;;;;5091305;28;20485;-68
2021/06/20 07:30:32;;;;;;;8.80;7.90;;;22.30;97.40;;;;;;5085609;28;20043;-68
2021/06/20 07:32:58;;;;;;;7.45;6.85;;;22.50;97.20;;;;;;5090159;28;20469;-68
2021/06/20 07:35:24;;;;;;;7.18;6.47;;;23.10;97.80;;;;;;5090153;28;20038;-68
2021/06/20 07:37:50;;;;;;;6.82;6.22;;;23.40;95.10;;;;;;5090540;28;20117;-68
2021/06/20 07:40:16;;;;;;;6.38;5.78;;;23.30;95.60;;;;;;5088690;28;20052;-67
2021/06/20 07:42:44;;;;;;;6.30;5.80;;;23.20;95.60;;;;;;5090263;28;20055;-68
2021/06/20 07:45:10;;;;;;;5.90;5.40;;;22.90;95.90;;;;;;5085195;28;20115;-69
2021/06/20 07:47:36;;;;;;;9.90;4.55;;;23.30;95.30;;;;;;5077272;28;20032;-69
2021/06/20 07:50:11;;;;;;;6.63;4.50;;;23.90;94.80;;;;;;5090274;28;20130;-76
2021/06/20 07:52:37;;;;;;;4.07;3.70;;;24.60;93.90;;;;;;5092568;28;20036;-69
2021/06/20 07:55:04;;;;;;;4.07;3.78;;;25.40;92.70;;;;;;5068858;28;20024;-69
2021/06/20 07:57:30;;;;;;;3.85;3.33;;;25.90;92.00;;;;;;5079628;28;20043;-69
2021/06/20 07:59:56;;;;;;;2.78;2.50;;;26.40;90.60;;;;;;5071852;28;20393;-69
2021/06/20 08:02:21;;;;;;;3.13;2.83;;;26.10;91.50;;;;;;5067463;28;20037;-69
2021/06/20 08:04:47;;;;;;;3.08;2.78;;;26.10;91.10;;;;;;5070384;28;20051;-69
2021/06/20 08:07:13;;;;;;;3.17;2.40;;;26.20;91.10;;;;;;5089505;28;20043;-69
2021/06/20 08:09:39;;;;;;;3.92;2.58;;;26.30;91.10;;;;;;5090161;28;20036;-69
2021/06/20 08:12:05;;;;;;;2.72;2.05;;;26.50;91.60;;;;;;5088447;28;20044;-69
2021/06/20 08:14:31;;;;;;;2.90;2.60;;;26.30;92.00;;;;;;5087860;28;20546;-69
2021/06/20 08:16:57;;;;;;;3.55;3.15;;;25.90;92.10;;;;;;5089268;28;20037;-69
2021/06/20 08:19:24;;;;;;;3.22;2.97;;;25.60;91.30;;;;;;5089820;28;20069;-69
2021/06/20 08:21:49;;;;;;;3.15;2.85;;;25.00;92.90;;;;;;5090765;28;20077;-69
2021/06/20 08:24:16;;;;;;;3.00;2.53;;;24.80;92.80;;;;;;5088044;28;20470;-69
2021/06/20 08:26:45;;;;;;;2.65;2.45;;;24.50;92.80;;;;;;5069599;28;20406;-69
2021/06/20 08:29:11;;;;;;;3.10;2.35;;;24.40;93.40;;;;;;5071444;28;20039;-69
2021/06/20 08:31:37;;;;;;;2.58;2.28;;;24.00;94.30;;;;;;5080936;28;20083;-69
2021/06/20 08:34:03;;;;;;;2.10;1.90;;;23.90;93.90;;;;;;5089120;28;20080;-68
2021/06/20 08:36:49;;;;;;;2.20;2.00;;;23.60;95.50;;;;;;5075436;28;20055;-69
2021/06/20 08:39:15;;;;;;;1.98;1.77;;;23.90;95.10;;;;;;5090402;28;20062;-70
2021/06/20 08:41:43;;;;;;;2.33;1.70;;;24.10;94.80;;;;;;5088396;28;20028;-69
2021/06/20 08:44:29;;;;;;;2.00;1.67;;;24.20;94.00;;;;;;5082850;28;20094;-69
2021/06/20 08:46:55;;;;;;;3.08;1.38;;;24.20;93.70;;;;;;5094300;28;20094;-69
2021/06/20 08:49:22;;;;;;;1.55;1.17;;;24.00;92.90;;;;;;5093919;28;20093;-69
2021/06/20 08:51:50;;;;;;;1.88;1.10;;;23.80;94.60;;;;;;5075677;28;20040;-70
2021/06/20 08:54:16;;;;;;;3.05;0.98;;;23.80;94.60;;;;;;5087435;28;20389;-70
2021/06/20 08:56:43;;;;;;;1.35;1.05;;;24.10;93.00;;;;;;5089451;28;20035;-69
2021/06/20 08:59:12;;;;;;;1.60;1.02;;;24.30;93.00;;;;;;5093563;28;20517;-69
2021/06/20 09:01:37;;;;;;;2.47;0.80;;;24.10;93.00;;;;;;5093790;28;20127;-69
2021/06/20 09:04:03;;;;;;;1.63;0.90;;;23.90;93.50;;;;;;5093359;28;20528;-69
2021/06/20 09:06:29;;;;;;;2.33;0.80;;;23.90;93.70;;;;;;5093305;28;20032;-78
2021/06/20 09:08:57;;;;;;;1.13;0.70;;;23.70;93.50;;;;;;5093619;28;20040;-69
2021/06/20 09:11:33;;;;;;;1.05;0.80;;;23.60;93.50;;;;;;5092750;28;20044;-70
2021/06/20 09:14:06;;;;;;;5.03;1.02;;;23.50;94.10;;;;;;5093126;28;20036;-69
2021/06/20 09:16:32;;;;;;;1.83;0.90;;;23.60;93.30;;;;;;5088100;28;20115;-69
2021/06/20 09:18:59;;;;;;;1.40;0.65;;;23.80;93.00;;;;;;5091915;28;20055;-68
2021/06/20 09:21:26;;;;;;;0.88;0.70;;;23.60;93.20;;;;;;5092559;28;20036;-68
2021/06/20 09:23:56;;;;;;;2.47;0.85;;;23.60;93.90;;;;;;5092433;28;20061;-68
2021/06/20 09:26:39;;;;;;;3.33;0.70;;;23.60;93.00;;;;;;5089618;28;20028;-68
2021/06/20 09:29:06;;;;;;;2.00;0.80;;;23.70;92.90;;;;;;5090502;28;20085;-68
2021/06/20 09:31:54;;;;;;;2.25;0.70;;;24.00;92.50;;;;;;5089837;28;20378;-68
2021/06/20 09:34:20;;;;;;;0.80;0.60;;;24.10;92.50;;;;;;5091361;28;20051;-68
2021/06/20 09:36:46;;;;;;;1.48;0.60;;;24.00;92.50;;;;;;5073788;28;20044;-68
2021/06/20 09:39:23;;;;;;;1.95;0.80;;;23.90;92.80;;;;;;5091272;28;20041;-69
2021/06/20 09:41:59;;;;;;;2.60;0.50;;;24.00;92.90;;;;;;5090634;28;20685;-69
2021/06/20 09:44:45;;;;;;;1.63;0.50;;;24.00;92.40;;;;;;5092550;28;20036;-69
2021/06/20 09:47:13;;;;;;;0.60;0.60;;;23.70;93.00;;;;;;5090276;28;20112;-70
2021/06/20 09:49:39;;;;;;;0.82;0.73;;;23.60;92.90;;;;;;5090621;28;20044;-70
2021/06/20 09:52:07;;;;;;;1.38;0.60;;;23.60;93.20;;;;;;5069995;28;20114;-69
2021/06/20 09:54:38;;;;;;;0.50;0.50;;;23.50;93.20;;;;;;5089826;28;20036;-71
2021/06/20 09:57:12;;;;;;;1.90;0.73;;;23.40;93.10;;;;;;5086305;28;20047;-71
2021/06/20 09:59:42;;;;;;;2.00;0.77;;;23.50;93.50;;;;;;5084802;28;20480;-71
2021/06/20 10:02:12;;;;;;;2.22;0.75;;;23.60;92.90;;;;;;5092022;28;20098;-69
2021/06/20 10:04:40;;;;;;;0.93;0.50;;;23.80;92.70;;;;;;5091690;28;20040;-69
2021/06/20 10:07:07;;;;;;;1.13;0.63;;;23.90;92.60;;;;;;5092560;28;20036;-68
2021/06/20 10:09:35;;;;;;;1.20;0.60;;;24.10;92.00;;;;;;5092223;28;20097;-69
2021/06/20 10:12:02;;;;;;;2.08;0.63;;;24.10;91.80;;;;;;5092740;28;20044;-69
2021/06/20 10:14:28;;;;;;;1.23;0.60;;;24.00;92.40;;;;;;5083928;28;20032;-68
2021/06/20 10:17:00;;;;;;;1.50;0.70;;;24.00;92.10;;;;;;5092676;28;20048;-69
2021/06/20 10:19:27;;;;;;;1.52;0.50;;;23.90;92.80;;;;;;5090498;28;20064;-69
2021/06/20 10:22:06;;;;;;;0.82;0.50;;;23.80;92.80;;;;;;5084677;28;22811;-68
2021/06/20 10:24:45;;;;;;;1.23;0.50;;;23.90;92.50;;;;;;5092382;28;20036;-69
2021/06/20 10:27:25;;;;;;;0.77;0.60;;;23.80;92.40;;;;;;5091958;28;20040;-70
2021/06/20 10:29:53;;;;;;;1.10;0.82;;;23.70;92.50;;;;;;5080819;28;20532;-68
2021/06/20 10:32:20;;;;;;;1.10;0.50;;;23.60;92.90;;;;;;5091727;28;20114;-68
2021/06/20 10:34:57;;;;;;;2.10;0.65;;;23.50;92.90;;;;;;5092176;28;20042;-68
2021/06/20 10:37:25;;;;;;;0.50;0.50;;;23.60;92.50;;;;;;5092141;28;20039;-68
2021/06/20 10:39:54;;;;;;;1.10;0.57;;;23.70;92.50;;;;;;5072169;28;20500;-70
2021/06/20 10:42:30;;;;;;;1.45;0.50;;;23.80;92.80;;;;;;5091475;28;20044;-69
2021/06/20 10:44:56;;;;;;;0.43;0.30;;;24.10;92.30;;;;;;5091407;28;20469;-68
2021/06/20 10:47:29;;;;;;;1.65;0.57;;;24.30;91.10;;;;;;5090965;28;20101;-69
2021/06/20 10:49:57;;;;;;;0.93;0.40;;;24.20;91.60;;;;;;5091195;28;20028;-69
2021/06/20 10:52:23;;;;;;;1.23;0.35;;;24.30;91.50;;;;;;5060310;28;20135;-68
2021/06/20 10:54:52;;;;;;;2.45;0.80;;;24.40;91.10;;;;;;5089998;28;20124;-69
2021/06/20 10:57:54;;;;;;;3.05;0.47;;;24.30;91.10;;;;;;5087562;28;20054;-68
2021/06/20 11:00:27;;;;;;;;;;;24.20;91.40;;;;;;5084002;28;20047;-68
2021/06/20 11:02:55;;;;;;;0.70;0.40;;;24.10;90.80;;;;;;5090402;28;19954;-69
2021/06/20 11:05:24;;;;;;;1.27;0.57;;;24.20;91.00;;;;;;5082309;28;20040;-68
2021/06/20 11:08:24;;;;;;;1.50;0.75;;;24.10;91.30;;;;;;5090818;28;20036;-69
2021/06/20 11:10:50;;;;;;;1.00;0.60;;;24.00;91.50;;;;;;5050843;28;20146;-68
2021/06/20 11:13:21;;;;;;;1.17;0.50;;;23.90;91.50;;;;;;5064059;28;20075;-69
2021/06/20 11:15:46;;;;;;;0.60;0.60;;;23.80;91.80;;;;;;5089770;28;20032;-69
2021/06/20 11:18:12;;;;;;;3.78;0.70;;;23.80;91.90;;;;;;5091159;28;20572;-69
2021/06/20 11:20:38;;;;;;;1.52;0.50;;;23.60;92.10;;;;;;5085103;28;20070;-69
2021/06/20 11:23:04;;;;;;;2.22;0.50;;;23.50;92.60;;;;;;5090855;28;20089;-69
2021/06/20 11:25:30;;;;;;;2.92;0.55;;;23.40;92.60;;;;;;5091308;28;20475;-69
2021/06/20 11:27:57;;;;;;;1.90;0.52;;;23.30;92.70;;;;;;5091160;28;20055;-69
2021/06/20 11:30:23;;;;;;;1.52;0.50;;;23.20;92.80;;;;;;5071701;28;20040;-69
2021/06/20 11:32:49;;;;;;;0.90;0.50;;;23.20;92.80;;;;;;5091126;28;20046;-69
2021/06/20 11:35:20;;;;;;;1.70;0.60;;;23.10;93.20;;;;;;5090311;28;20065;-69
2021/06/20 11:37:51;;;;;;;2.13;0.52;;;23.10;93.10;;;;;;5091046;28;20040;-69
2021/06/20 11:40:22;;;;;;;1.55;0.60;;;23.10;92.90;;;;;;5090700;28;20465;-70
2021/06/20 11:42:51;;;;;;;;;;;23.00;93.30;;;;;;5093042;28;20378;-69
2021/06/20 11:45:20;;;;;;;0.80;0.47;;;22.90;93.00;;;;;;5075083;28;19916;-69
2021/06/20 11:47:49;;;;;;;0.65;0.47;;;22.90;93.30;;;;;;5089124;28;20127;-69
2021/06/20 11:50:26;;;;;;;0.65;0.57;;;23.00;93.00;;;;;;5090590;28;20042;-69
2021/06/20 11:53:06;;;;;;;1.55;0.50;;;22.70;92.80;;;;;;5086356;28;20067;-70
2021/06/20 11:55:37;;;;;;;0.93;0.50;;;22.60;93.30;;;;;;5090621;28;20115;-70
2021/06/20 11:58:04;;;;;;;0.98;0.57;;;22.50;93.50;;;;;;5088894;28;20136;-70
2021/06/20 12:00:31;;;;;;;1.58;0.50;;;22.50;93.70;;;;;;5085742;28;20043;-70
2021/06/20 12:03:05;;;;;;;1.30;0.47;;;22.30;94.00;;;;;;5086670;28;20047;-67
2021/06/20 12:05:33;;;;;;;1.08;0.40;;;22.20;94.20;;;;;;5090676;28;20505;-70
2021/06/20 12:07:59;;;;;;;1.48;0.50;;;22.30;94.30;;;;;;5089981;28;20476;-70
2021/06/20 12:10:25;;;;;;;2.03;0.60;;;22.30;94.40;;;;;;5076337;28;20039;-70
2021/06/20 12:13:02;;;;;;;0.88;0.70;;;22.30;94.30;;;;;;5089510;28;20436;-70
2021/06/20 12:15:30;;;;;;;3.03;0.65;;;22.30;94.30;;;;;;5089551;28;20431;-70
2021/06/20 12:17:56;;;;;;;1.23;0.50;;;22.30;94.30;;;;;;5091666;28;20090;-70
2021/06/20 12:20:32;;;;;;;1.73;0.50;;;22.20;94.50;;;;;;5093881;28;20036;-70
2021/06/20 12:22:58;;;;;;;2.33;0.68;;;22.10;94.70;;;;;;5076534;28;20044;-70
2021/06/20 12:25:25;;;;;;;1.13;0.68;;;22.00;95.10;;;;;;5089242;28;20062;-70
2021/06/20 12:27:51;;;;;;;1.42;0.52;;;22.00;95.10;;;;;;5093343;28;20508;-70
2021/06/20 12:30:22;;;;;;;1.63;0.60;;;22.00;95.20;;;;;;5092628;28;20115;-70
2021/06/20 12:32:50;;;;;;;1.55;0.68;;;22.00;95.20;;;;;;5092479;28;20032;-70
2021/06/20 12:35:21;;;;;;;1.42;0.50;;;22.10;94.80;;;;;;5075487;28;20036;-70
2021/06/20 12:37:49;;;;;;;2.22;0.77;;;22.00;94.80;;;;;;5091060;28;20028;-70